Nearby METAR Reports

 

KPBH - Phillips, Wisconsin, USA
Distance from station: SE 13mi, 21km
Updated: 10/22/2017 2:55am
Drizzle, Overcast
Drizzle, Overcast
 Wind from SW
Wind: SW 12 mph , 19 km/h, Gust: 17 mph , 28 km/h
Temperature: 59°F , 15°C
Dew Point: 59°F , 15°C
Humidity: 100%
Barometer: 29.77 inHg , 1008.1 hPa
Summary: Drizzle
Clouds: Overcast
Visibility: 5 miles , 8 km
Cloud details: Overcast 600 ft
2017/10/22 07:55 KPBH 220755Z AUTO 22010G15KT 5SM DZ OVC006 15/15 A2977 RMK AO2 P0003 T01510151
KRCX - Ladysmith/Rusk, Wisconsin, USA
Distance from station: SW 29mi, 46km
Updated: 10/22/2017 2:55am
Overcast
Overcast
 Wind from WSW
Wind: WSW 6 mph , 9 km/h
Temperature: 54°F , 12°C
Dew Point: 52°F , 11°C
Humidity: 94%
Barometer: 29.83 inHg , 1010.2 hPa
Clouds: Overcast
Visibility: 10 miles , 16 km
Cloud details: Mostly cloudy 2400 ft
Mostly cloudy 3400 ft
Overcast 4500 ft
2017/10/22 07:55 KRCX 220755Z AUTO 24005KT 10SM BKN024 BKN034 OVC045 12/11 A2983 RMK AO2 P0002 T01160106
 
KD25 - Manitowish Water, Wisconsin, USA
Distance from station: ENE 41mi, 66km
Updated: 10/22/2017 2:55am
Light rain, Overcast
Light rain, Overcast
 Wind from S
Wind: S 8 mph , 13 km/h
Temperature: 59°F , 15°C
Dew Point: 59°F , 15°C
Humidity: 100%
Barometer: 29.77 inHg , 1008.1 hPa
Summary: Light rain
Clouds: Overcast
Visibility: 10 miles , 16 km
Cloud details: Partly cloudy 900 ft
Mostly cloudy 9000 ft
Overcast 11000 ft
2017/10/22 07:55 KD25 220755Z AUTO 17007KT 10SM -RA SCT009 BKN090 OVC110 15/15 A2977 RMK AO2 P0004 T01470147
KHYR - Hayward, Wisconsin, USA
Distance from station: WNW 42mi, 68km
Updated: 10/22/2017 2:53am
Overcast
Overcast
 Wind from SW
Wind: SW 13 mph , 20 km/h
Temperature: 52°F , 11°C
Dew Point: 48°F , 9°C
Humidity: 88%
Barometer: 29.80 inHg , 1009.1 hPa
Clouds: Overcast
Visibility: 10 miles , 16 km
Cloud details: Mostly cloudy 1200 ft
Overcast 1800 ft
2017/10/22 07:53 KHYR 220753Z AUTO 23011KT 10SM BKN012 OVC018 11/09 A2980 RMK AO2 SLP093 T01110089
 
KARV - Minocqua/Woodruf, Wisconsin, USA
Distance from station: E 44mi, 71km
Updated: 10/22/2017 2:55am
Light rain, Overcast
Light rain, Overcast
 Wind from SSE
Wind: SSE 8 mph , 13 km/h
Temperature: 59°F , 15°C
Dew Point: 59°F , 15°C
Humidity: 100%
Barometer: 29.79 inHg , 1008.8 hPa
Summary: Light rain
Clouds: Overcast
Visibility: 10 miles , 16 km
Cloud details: Partly cloudy 6000 ft
Partly cloudy 7500 ft
Overcast 8500 ft
2017/10/22 07:55 KARV 220755Z AUTO 16007KT 10SM -RA SCT060 SCT075 OVC085 15/15 A2979 RMK AO2 T01520145
KTKV - Tomahawk Regnl, Wisconsin, USA
Distance from station: ESE 46mi, 74km
Updated: 10/22/2017 2:55am
Light drizzle, Overcast
Light drizzle, Overcast
 Wind from SSE
Wind: SSE 3 mph , 6 km/h
Temperature: 59°F , 15°C
Dew Point: 57°F , 14°C
Humidity: 94%
Barometer: 29.82 inHg , 1009.8 hPa
Summary: Light Drizzle
Clouds: Overcast
Visibility: 5 miles , 8 km
Cloud details: Partly cloudy 800 ft
Overcast 1500 ft
2017/10/22 07:55 KTKV 220755Z AUTO 15003KT 5SM -DZ SCT008 OVC015 15/14 A2982 RMK AO2 T01500143